Архив погоды в Магнитогорске

Метеограмма Магнитогорск
Четверг, 20 Сентября
Время местн. Темп Ветер Видим Явления Облачность нижн/средн/верх Атм. давл. Влжн Точка росы ВНГО R Сост. почвы Tg s
Напр Скр Прв ур.ст ур.м изм
20:00 +10.1° С-З 4 - 10 км - облачно 720 754 +0.7 69% +4.6° 1 км 0 - - -
17:00 +11.7° С,С-З 3 - 20 км - облачно 720 753 +0.7 61% +4.5° 1 км - - - -
14:00 +11.6° С-З 3 - 20 км - облачно 719 753 +0.2 63% +4.9° 1 км - - - -
11:00 +11.6° З 2 - 20 км - облачно 719 752 +0.2 63% +4.8° 1 км - - - -
08:00 +7.7° штиль 0 - 20 км - переменная облачность 719 753 +0.5 82% +4.9° 1 км 0 Сухая (без трещин) - -
05:00 +5.7° З,Ю-З 1 - 10 км - переменная облачность 718 753 +0.1 90% +4.2° 1 км - - - -
02:00 +7.6° З 2 - 10 км - переменная облачность 718 752 -0.2 81% +4.6° 1 км - - - -
Среда, 19 Сентября
Время местн. Темп Ветер Видим Явления Облачность нижн/средн/верх Атм. давл. Влжн Точка росы ВНГО R Сост. почвы Tg s
Напр Скр Прв ур.ст ур.м изм
23:00 +9.5° З 1 - 10 км - переменная облачность 718 752 +0.5 69% +4.2° 1 км - - - -
20:00 +11.2° З 3 - 10 км - облачно с прояснениями 718 751 +1.4 66% +5.2° 1 км 0 - - -
17:00 +14.4° З 7 11 20 км - облачно с прояснениями 716 750 -0.1 63% +7.5° 1.5 км - - - -
14:00 +14.8° Ю,Ю-З 5 10 20 км - преимущественно облачно 716 750 -0.6 66% +8.6° 1 км - - - -
11:00 +15.6° Ю,Ю-З 4 - 20 км - переменная облачность 717 750 -0.8 63% +8.5° 1 км - - - -
08:00 +11.9° Ю 4 - 20 км небо без изменений {дождь} облачно 718 751 -0.5 83% +9.1° 1 км 1 Влажная (без луж) - -
05:00 +13.3° штиль 0 - 10 км дождь облачно 718 752 -1.5 65% +6.8° 1 км - - - -
02:00 +16.5° В,Ю-В 4 - 10 км - переменная облачность 720 753 -2.6 33% +0.3° - - - - -
Вторник, 18 Сентября
Время местн. Темп Ветер Видим Явления Облачность нижн/средн/верх Атм. давл. Влжн Точка росы ВНГО R Сост. почвы Tg s
Напр Скр Прв ур.ст ур.м изм
23:00 +16.6° В,Ю-В 4 - 10 км - переменная облачность 722 756 -1.7 33% +0.1° 1 км - - - -
20:00 +20.4° Ю-В 4 15 10 км - облачно 724 757 -1 27% +0.8° 1 км 0 - - -
17:00 +22.9° Ю-В 7 10 20 км - облачно 725 758 -0.9 24% +1.1° 1 км - - - -
14:00 +24.8° Ю-В 9 15 20 км - преимущественно облачно 726 758 -1.9 20% +0.5° 1 км - - - -
11:00 +22.1° Ю 5 - 20 км - преимущественно облачно 728 761 -0.6 24% +0.6° 1 км - - - -
08:00 +15.8° Ю-В 2 - 20 км - облачно 728 762 +0.1 43% +3.1° 1 км 0 Сухая (без трещин) - -
05:00 +14° штиль 0 - 10 км - облачно 728 762 0 48% +3.2° 1 км - - - -
02:00 +15.9° Ю 3 - 10 км - облачно 728 762 -0.3 35% +0.3° - - - - -
Понедельник, 17 Сентября
Время местн. Темп Ветер Видим Явления Облачность нижн/средн/верх Атм. давл. Влжн Точка росы ВНГО R Сост. почвы Tg s
Напр Скр Прв ур.ст ур.м изм
23:00 +14° штиль 0 - 10 км - преимущественно облачно 729 763 -0.5 40% +0.6° - - - - -
20:00 +15.6° В 1 - 10 км - преимущественно облачно 729 763 -0.4 43% +3° 1.5 км 0 - - -
17:00 +23° Ю,Ю-З 1 - 20 км - облачно с прояснениями 730 762 -1 22% -0.1° 1.5 км - - - -